DAH28Y DAAG-DAUU
Flight info
| Callsign | DAH28Y |
|---|---|
| Flight time | 0h 56m |
| Altitude | 39000 |
| Route | BSA1C BSA DCT BEREK DCT OUR |
| Aircraft | B737/M-SDE2E3FGHIRWXY/LB1 |
Departure
| Time | 2026-05-03 20:23 |
|---|---|
| Airport | Houari Boumediene Airport (DAAG) |
Arrival
| Time | 2026-05-03 21:20 |
|---|---|
| Airport | Ain Beida Airport (DAUU) |
| Time | Latitude | Longitude | Altitude | Speed | Heading |
|---|---|---|---|---|---|
| 2026-05-03 20:15 | 36.69662 | 3.20778 | 69 ft | 4 kts | 6° |
| 2026-05-03 20:15 | 36.69644 | 3.20776 | 69 ft | 4 kts | 6° |
| 2026-05-03 20:15 | 36.69614 | 3.20772 | 68 ft | 4 kts | 6° |
| 2026-05-03 20:15 | 36.69590 | 3.20769 | 64 ft | 4 kts | 21° |
| 2026-05-03 20:16 | 36.69580 | 3.20752 | 67 ft | 4 kts | 91° |
| 2026-05-03 20:16 | 36.69581 | 3.20727 | 67 ft | 4 kts | 115° |
| 2026-05-03 20:16 | 36.69581 | 3.20732 | 68 ft | 0 kts | 89° |
| 2026-05-03 20:18 | 36.69581 | 3.20737 | 64 ft | 3 kts | 94° |
| 2026-05-03 20:18 | 36.69564 | 3.20773 | 68 ft | 7 kts | 139° |
| 2026-05-03 20:18 | 36.69514 | 3.20819 | 68 ft | 11 kts | 148° |
| 2026-05-03 20:19 | 36.69440 | 3.20858 | 70 ft | 12 kts | 160° |
| 2026-05-03 20:19 | 36.69382 | 3.20918 | 67 ft | 11 kts | 104° |
| 2026-05-03 20:19 | 36.69381 | 3.21015 | 69 ft | 11 kts | 86° |
| 2026-05-03 20:19 | 36.69380 | 3.21109 | 69 ft | 11 kts | 92° |
| 2026-05-03 20:20 | 36.69381 | 3.21200 | 68 ft | 10 kts | 89° |
| 2026-05-03 20:20 | 36.69380 | 3.21289 | 67 ft | 10 kts | 90° |
| 2026-05-03 20:20 | 36.69379 | 3.21375 | 67 ft | 10 kts | 90° |
| 2026-05-03 20:20 | 36.69379 | 3.21459 | 61 ft | 10 kts | 90° |
| 2026-05-03 20:21 | 36.69379 | 3.21541 | 60 ft | 9 kts | 90° |
| 2026-05-03 20:21 | 36.69378 | 3.21620 | 66 ft | 9 kts | 91° |
| 2026-05-03 20:21 | 36.69378 | 3.21703 | 65 ft | 10 kts | 90° |
| 2026-05-03 20:21 | 36.69378 | 3.21804 | 57 ft | 13 kts | 90° |
| 2026-05-03 20:22 | 36.69378 | 3.21923 | 63 ft | 15 kts | 90° |
| 2026-05-03 20:22 | 36.69398 | 3.22049 | 59 ft | 15 kts | 57° |
| 2026-05-03 20:22 | 36.69524 | 3.22247 | 61 ft | 61 kts | 52° |
| 2026-05-03 20:22 | 36.69931 | 3.22913 | 60 ft | 128 kts | 52° |
| 2026-05-03 20:23 | 36.70593 | 3.23973 | 119 ft | 176 kts | 51° |
| 2026-05-03 20:23 | 36.71322 | 3.25216 | 814 ft | 174 kts | 56° |
| 2026-05-03 20:23 | 36.72092 | 3.26356 | 1620 ft | 172 kts | 32° |
| 2026-05-03 20:23 | 36.73264 | 3.26603 | 2132 ft | 181 kts | 339° |
| 2026-05-03 20:24 | 36.74267 | 3.25591 | 2409 ft | 200 kts | 290° |
| 2026-05-03 20:24 | 36.74397 | 3.23833 | 2670 ft | 216 kts | 253° |
| 2026-05-03 20:24 | 36.73858 | 3.22017 | 3051 ft | 229 kts | 243° |
| 2026-05-03 20:24 | 36.73169 | 3.20187 | 3511 ft | 246 kts | 242° |
| 2026-05-03 20:25 | 36.72432 | 3.18194 | 4260 ft | 253 kts | 243° |
| 2026-05-03 20:25 | 36.71726 | 3.16193 | 5227 ft | 252 kts | 243° |
| 2026-05-03 20:25 | 36.71045 | 3.14177 | 6159 ft | 254 kts | 245° |
| 2026-05-03 20:25 | 36.70338 | 3.12145 | 7047 ft | 255 kts | 245° |
| 2026-05-03 20:26 | 36.69655 | 3.10127 | 7956 ft | 258 kts | 245° |
| 2026-05-03 20:26 | 36.68915 | 3.08050 | 8940 ft | 259 kts | 237° |
| 2026-05-03 20:26 | 36.67602 | 3.06497 | 9834 ft | 268 kts | 214° |
| 2026-05-03 20:26 | 36.65826 | 3.05642 | 10506 ft | 286 kts | 194° |
| 2026-05-03 20:27 | 36.63728 | 3.05729 | 10823 ft | 321 kts | 169° |
| 2026-05-03 20:27 | 36.61641 | 3.06884 | 11532 ft | 338 kts | 153° |
| 2026-05-03 20:27 | 36.59671 | 3.08551 | 12340 ft | 346 kts | 149° |
| 2026-05-03 20:27 | 36.57717 | 3.10361 | 13162 ft | 353 kts | 147° |
| 2026-05-03 20:28 | 36.55744 | 3.12222 | 14025 ft | 359 kts | 147° |
| 2026-05-03 20:28 | 36.53759 | 3.14088 | 14796 ft | 364 kts | 147° |
| 2026-05-03 20:28 | 36.51721 | 3.15983 | 15662 ft | 367 kts | 148° |
| 2026-05-03 20:28 | 36.49632 | 3.17904 | 16550 ft | 370 kts | 148° |
| 2026-05-03 20:29 | 36.47535 | 3.19797 | 17316 ft | 377 kts | 148° |
| 2026-05-03 20:29 | 36.45397 | 3.21727 | 18063 ft | 382 kts | 148° |
| 2026-05-03 20:29 | 36.43263 | 3.23656 | 18784 ft | 388 kts | 148° |
| 2026-05-03 20:29 | 36.41056 | 3.25647 | 19463 ft | 394 kts | 148° |
| 2026-05-03 20:30 | 36.38825 | 3.27653 | 20188 ft | 398 kts | 148° |
| 2026-05-03 20:30 | 36.36567 | 3.29680 | 20891 ft | 403 kts | 148° |
| 2026-05-03 20:30 | 36.34282 | 3.31727 | 21588 ft | 408 kts | 148° |
| 2026-05-03 20:30 | 36.31970 | 3.33797 | 22288 ft | 412 kts | 148° |
| 2026-05-03 20:31 | 36.29630 | 3.35889 | 22972 ft | 417 kts | 148° |
| 2026-05-03 20:31 | 36.27257 | 3.38010 | 23621 ft | 422 kts | 148° |
| 2026-05-03 20:31 | 36.24858 | 3.40152 | 24164 ft | 427 kts | 149° |
| 2026-05-03 20:31 | 36.22469 | 3.42283 | 24697 ft | 431 kts | 149° |
| 2026-05-03 20:32 | 36.20018 | 3.44467 | 25240 ft | 436 kts | 149° |
| 2026-05-03 20:32 | 36.17540 | 3.46674 | 25675 ft | 443 kts | 149° |
| 2026-05-03 20:32 | 36.15019 | 3.48917 | 26164 ft | 448 kts | 149° |
| 2026-05-03 20:32 | 36.12479 | 3.51176 | 26718 ft | 451 kts | 149° |
| 2026-05-03 20:33 | 36.09917 | 3.53454 | 27243 ft | 455 kts | 149° |
| 2026-05-03 20:33 | 36.07337 | 3.55746 | 27733 ft | 459 kts | 150° |
| 2026-05-03 20:33 | 36.04731 | 3.58058 | 28225 ft | 463 kts | 150° |
| 2026-05-03 20:33 | 36.02099 | 3.60391 | 28715 ft | 467 kts | 150° |
| 2026-05-03 20:34 | 35.99442 | 3.62745 | 29188 ft | 471 kts | 150° |
| 2026-05-03 20:34 | 35.96766 | 3.65113 | 29646 ft | 475 kts | 150° |
| 2026-05-03 20:34 | 35.94064 | 3.67502 | 30092 ft | 479 kts | 150° |
| 2026-05-03 20:34 | 35.91344 | 3.69905 | 30472 ft | 482 kts | 150° |
| 2026-05-03 20:35 | 35.88607 | 3.72322 | 30871 ft | 485 kts | 150° |
| 2026-05-03 20:35 | 35.85891 | 3.74718 | 31252 ft | 487 kts | 150° |
| 2026-05-03 20:35 | 35.83128 | 3.77154 | 31609 ft | 490 kts | 150° |
| 2026-05-03 20:35 | 35.80354 | 3.79597 | 31959 ft | 492 kts | 150° |
| 2026-05-03 20:36 | 35.77555 | 3.82059 | 32305 ft | 494 kts | 150° |
| 2026-05-03 20:36 | 35.74754 | 3.84521 | 32693 ft | 494 kts | 151° |
| 2026-05-03 20:36 | 35.71959 | 3.86979 | 33178 ft | 492 kts | 151° |
| 2026-05-03 20:36 | 35.69177 | 3.89422 | 33679 ft | 490 kts | 151° |
| 2026-05-03 20:37 | 35.66409 | 3.91851 | 34124 ft | 487 kts | 151° |
| 2026-05-03 20:37 | 35.63653 | 3.94266 | 34510 ft | 486 kts | 151° |
| 2026-05-03 20:37 | 35.60898 | 3.96676 | 34865 ft | 485 kts | 151° |
| 2026-05-03 20:37 | 35.58149 | 3.99079 | 35216 ft | 484 kts | 151° |
| 2026-05-03 20:38 | 35.55409 | 4.01472 | 35577 ft | 482 kts | 151° |
| 2026-05-03 20:38 | 35.52680 | 4.03854 | 35948 ft | 481 kts | 152° |
| 2026-05-03 20:38 | 35.49981 | 4.06208 | 36276 ft | 480 kts | 152° |
| 2026-05-03 20:38 | 35.47256 | 4.08582 | 36587 ft | 479 kts | 152° |
| 2026-05-03 20:39 | 35.44537 | 4.10949 | 36925 ft | 478 kts | 152° |
| 2026-05-03 20:39 | 35.41831 | 4.13303 | 37226 ft | 476 kts | 152° |
| 2026-05-03 20:39 | 35.39123 | 4.15657 | 37484 ft | 477 kts | 152° |
| 2026-05-03 20:39 | 35.36418 | 4.18006 | 37754 ft | 476 kts | 152° |
| 2026-05-03 20:40 | 35.33687 | 4.20288 | 38053 ft | 471 kts | 156° |
| 2026-05-03 20:40 | 35.30804 | 4.22087 | 38320 ft | 460 kts | 166° |
| 2026-05-03 20:40 | 35.27828 | 4.23498 | 38648 ft | 457 kts | 168° |
| 2026-05-03 20:40 | 35.24889 | 4.24837 | 38881 ft | 455 kts | 168° |
| 2026-05-03 20:41 | 35.21881 | 4.26194 | 39073 ft | 456 kts | 168° |
| 2026-05-03 20:41 | 35.15878 | 4.28926 | 39078 ft | 462 kts | 167° |
| 2026-05-03 20:42 | 35.09936 | 4.31682 | 39110 ft | 459 kts | 167° |
| 2026-05-03 20:42 | 35.03980 | 4.34464 | 39123 ft | 457 kts | 167° |
| 2026-05-03 20:43 | 34.98051 | 4.37229 | 39116 ft | 456 kts | 167° |
| 2026-05-03 20:43 | 34.92130 | 4.39985 | 39121 ft | 454 kts | 167° |
| 2026-05-03 20:44 | 34.86227 | 4.42726 | 39124 ft | 454 kts | 167° |
| 2026-05-03 20:44 | 34.80314 | 4.45465 | 39135 ft | 455 kts | 167° |
| 2026-05-03 20:45 | 34.74384 | 4.48209 | 39135 ft | 457 kts | 167° |
| 2026-05-03 20:45 | 34.68454 | 4.50948 | 39134 ft | 460 kts | 167° |
| 2026-05-03 20:46 | 34.62463 | 4.53713 | 39109 ft | 461 kts | 167° |
| 2026-05-03 20:46 | 34.56456 | 4.56482 | 39123 ft | 462 kts | 167° |
| 2026-05-03 20:47 | 34.50437 | 4.59252 | 39109 ft | 464 kts | 166° |
| 2026-05-03 20:47 | 34.44389 | 4.62031 | 39121 ft | 464 kts | 166° |
| 2026-05-03 20:48 | 34.38354 | 4.64799 | 39083 ft | 464 kts | 166° |
| 2026-05-03 20:48 | 34.32325 | 4.67561 | 39103 ft | 463 kts | 166° |
| 2026-05-03 20:49 | 34.26309 | 4.70312 | 39111 ft | 462 kts | 166° |
| 2026-05-03 20:49 | 34.20300 | 4.73056 | 39113 ft | 461 kts | 166° |
| 2026-05-03 20:50 | 34.14308 | 4.75787 | 39116 ft | 460 kts | 166° |
| 2026-05-03 20:50 | 34.08359 | 4.78495 | 39104 ft | 459 kts | 166° |
| 2026-05-03 20:51 | 34.02380 | 4.81212 | 39111 ft | 459 kts | 166° |
| 2026-05-03 20:51 | 33.96411 | 4.83921 | 39116 ft | 458 kts | 166° |
| 2026-05-03 20:52 | 33.90445 | 4.86624 | 39119 ft | 458 kts | 166° |
| 2026-05-03 20:52 | 33.84482 | 4.89321 | 39099 ft | 458 kts | 166° |
| 2026-05-03 20:53 | 33.78507 | 4.92021 | 39108 ft | 458 kts | 166° |
| 2026-05-03 20:53 | 33.75515 | 4.93370 | 38874 ft | 463 kts | 166° |
| 2026-05-03 20:53 | 33.72476 | 4.94738 | 38286 ft | 465 kts | 166° |
| 2026-05-03 20:53 | 33.69452 | 4.96104 | 37714 ft | 463 kts | 166° |
| 2026-05-03 20:54 | 33.66446 | 4.97460 | 37111 ft | 461 kts | 166° |
| 2026-05-03 20:54 | 33.60449 | 5.00114 | 36110 ft | 452 kts | 169° |
| 2026-05-03 20:54 | 33.57437 | 5.01033 | 35608 ft | 443 kts | 174° |
| 2026-05-03 20:55 | 33.54466 | 5.01788 | 35166 ft | 439 kts | 175° |
| 2026-05-03 20:55 | 33.51484 | 5.02503 | 34722 ft | 436 kts | 175° |
| 2026-05-03 20:55 | 33.48523 | 5.03208 | 34285 ft | 433 kts | 175° |
| 2026-05-03 20:55 | 33.45576 | 5.03919 | 33808 ft | 430 kts | 175° |
| 2026-05-03 20:56 | 33.42654 | 5.04637 | 33318 ft | 428 kts | 175° |
| 2026-05-03 20:56 | 33.39744 | 5.05362 | 32868 ft | 425 kts | 175° |
| 2026-05-03 20:56 | 33.36863 | 5.06087 | 32427 ft | 422 kts | 175° |
| 2026-05-03 20:56 | 33.33999 | 5.06811 | 31995 ft | 419 kts | 175° |
| 2026-05-03 20:57 | 33.31160 | 5.07530 | 31573 ft | 416 kts | 175° |
| 2026-05-03 20:57 | 33.28336 | 5.08246 | 31151 ft | 413 kts | 175° |
| 2026-05-03 20:57 | 33.25531 | 5.08955 | 30735 ft | 411 kts | 175° |
| 2026-05-03 20:57 | 33.22746 | 5.09659 | 30325 ft | 408 kts | 175° |
| 2026-05-03 20:58 | 33.19973 | 5.10360 | 29859 ft | 406 kts | 175° |
| 2026-05-03 20:58 | 33.17215 | 5.11056 | 29373 ft | 403 kts | 175° |
| 2026-05-03 20:58 | 33.14481 | 5.11746 | 28904 ft | 400 kts | 175° |
| 2026-05-03 20:58 | 33.11773 | 5.12429 | 28452 ft | 396 kts | 175° |
| 2026-05-03 20:59 | 33.09082 | 5.13108 | 28011 ft | 393 kts | 175° |
| 2026-05-03 20:59 | 33.06416 | 5.13779 | 27561 ft | 390 kts | 174° |
| 2026-05-03 20:59 | 33.03772 | 5.14444 | 27122 ft | 387 kts | 174° |
| 2026-05-03 20:59 | 33.01180 | 5.15095 | 26705 ft | 384 kts | 174° |
| 2026-05-03 21:00 | 32.98569 | 5.15751 | 26277 ft | 382 kts | 174° |
| 2026-05-03 21:00 | 32.97688 | 5.15971 | 26125 ft | 381 kts | 174° |
| 2026-05-03 21:00 | 32.93391 | 5.17049 | 25416 ft | 378 kts | 174° |
| 2026-05-03 21:00 | 32.90824 | 5.17693 | 24969 ft | 377 kts | 174° |
| 2026-05-03 21:01 | 32.88258 | 5.18335 | 24535 ft | 376 kts | 174° |
| 2026-05-03 21:01 | 32.85705 | 5.18975 | 24088 ft | 375 kts | 174° |
| 2026-05-03 21:01 | 32.83153 | 5.19613 | 23637 ft | 374 kts | 174° |
| 2026-05-03 21:01 | 32.80610 | 5.20249 | 23138 ft | 373 kts | 174° |
| 2026-05-03 21:02 | 32.78932 | 5.20669 | 22810 ft | 371 kts | 173° |
| 2026-05-03 21:02 | 32.76409 | 5.21301 | 22357 ft | 368 kts | 173° |
| 2026-05-03 21:02 | 32.73106 | 5.22126 | 21792 ft | 364 kts | 173° |
| 2026-05-03 21:02 | 32.71432 | 5.22545 | 21494 ft | 363 kts | 173° |
| 2026-05-03 21:03 | 32.68173 | 5.23358 | 20916 ft | 359 kts | 173° |
| 2026-05-03 21:03 | 32.66524 | 5.23770 | 20635 ft | 358 kts | 173° |
| 2026-05-03 21:03 | 32.64095 | 5.24375 | 20205 ft | 356 kts | 173° |
| 2026-05-03 21:03 | 32.61682 | 5.24976 | 19779 ft | 354 kts | 173° |
| 2026-05-03 21:04 | 32.59276 | 5.25575 | 19350 ft | 352 kts | 172° |
| 2026-05-03 21:04 | 32.56884 | 5.26170 | 18906 ft | 351 kts | 172° |
| 2026-05-03 21:04 | 32.54500 | 5.26763 | 18483 ft | 349 kts | 172° |
| 2026-05-03 21:04 | 32.52126 | 5.27353 | 17990 ft | 348 kts | 172° |
| 2026-05-03 21:05 | 32.49760 | 5.27941 | 17531 ft | 345 kts | 172° |
| 2026-05-03 21:05 | 32.47422 | 5.28522 | 17095 ft | 342 kts | 172° |
| 2026-05-03 21:05 | 32.45131 | 5.29091 | 16675 ft | 339 kts | 172° |
| 2026-05-03 21:05 | 32.42830 | 5.29662 | 16255 ft | 336 kts | 172° |
| 2026-05-03 21:06 | 32.40547 | 5.30228 | 15823 ft | 333 kts | 171° |
| 2026-05-03 21:06 | 32.38286 | 5.30788 | 15417 ft | 331 kts | 171° |
| 2026-05-03 21:06 | 32.36041 | 5.31344 | 15005 ft | 328 kts | 171° |
| 2026-05-03 21:06 | 32.33813 | 5.31896 | 14576 ft | 326 kts | 171° |
| 2026-05-03 21:07 | 32.31591 | 5.32445 | 14145 ft | 325 kts | 171° |
| 2026-05-03 21:07 | 32.29375 | 5.32993 | 13692 ft | 324 kts | 171° |
| 2026-05-03 21:07 | 32.27176 | 5.33536 | 13228 ft | 322 kts | 171° |
| 2026-05-03 21:07 | 32.24991 | 5.34076 | 12773 ft | 319 kts | 170° |
| 2026-05-03 21:08 | 32.22826 | 5.34611 | 12340 ft | 317 kts | 170° |
| 2026-05-03 21:08 | 32.20671 | 5.35143 | 11914 ft | 315 kts | 170° |
| 2026-05-03 21:08 | 32.18533 | 5.35670 | 11480 ft | 313 kts | 169° |
| 2026-05-03 21:08 | 32.16407 | 5.36194 | 11044 ft | 312 kts | 169° |
| 2026-05-03 21:09 | 32.14315 | 5.36710 | 10605 ft | 311 kts | 169° |
| 2026-05-03 21:09 | 32.12206 | 5.37236 | 10281 ft | 306 kts | 169° |
| 2026-05-03 21:09 | 32.10154 | 5.37735 | 10081 ft | 297 kts | 169° |
| 2026-05-03 21:09 | 32.08141 | 5.38225 | 9679 ft | 295 kts | 168° |
| 2026-05-03 21:10 | 32.06134 | 5.38718 | 9287 ft | 293 kts | 168° |
| 2026-05-03 21:10 | 32.04147 | 5.39181 | 8893 ft | 291 kts | 168° |
| 2026-05-03 21:10 | 32.02169 | 5.39681 | 8515 ft | 289 kts | 168° |
| 2026-05-03 21:10 | 32.00207 | 5.40176 | 8142 ft | 288 kts | 168° |
| 2026-05-03 21:11 | 31.98253 | 5.40661 | 7768 ft | 286 kts | 168° |
| 2026-05-03 21:11 | 31.96307 | 5.41140 | 7413 ft | 285 kts | 168° |
| 2026-05-03 21:11 | 31.94365 | 5.41609 | 7033 ft | 284 kts | 170° |
| 2026-05-03 21:11 | 31.92397 | 5.41779 | 6649 ft | 283 kts | 180° |
| 2026-05-03 21:12 | 31.90431 | 5.41741 | 6264 ft | 282 kts | 181° |
| 2026-05-03 21:12 | 31.88477 | 5.41699 | 5903 ft | 279 kts | 180° |
| 2026-05-03 21:12 | 31.86545 | 5.41678 | 5550 ft | 276 kts | 179° |
| 2026-05-03 21:12 | 31.84630 | 5.41662 | 5194 ft | 273 kts | 179° |
| 2026-05-03 21:13 | 31.82761 | 5.41661 | 4888 ft | 269 kts | 178° |
| 2026-05-03 21:13 | 31.80958 | 5.41889 | 4734 ft | 256 kts | 156° |
| 2026-05-03 21:13 | 31.79556 | 5.43050 | 4644 ft | 241 kts | 135° |
| 2026-05-03 21:13 | 31.78392 | 5.44410 | 4525 ft | 231 kts | 134° |
| 2026-05-03 21:14 | 31.77282 | 5.45727 | 4419 ft | 221 kts | 134° |
| 2026-05-03 21:14 | 31.76018 | 5.46642 | 4290 ft | 214 kts | 171° |
| 2026-05-03 21:14 | 31.74607 | 5.46280 | 4129 ft | 214 kts | 215° |
| 2026-05-03 21:14 | 31.73751 | 5.44874 | 3903 ft | 217 kts | 253° |
| 2026-05-03 21:15 | 31.73814 | 5.43142 | 3651 ft | 215 kts | 295° |
| 2026-05-03 21:15 | 31.74818 | 5.41946 | 3410 ft | 203 kts | 342° |
| 2026-05-03 21:15 | 31.76150 | 5.41667 | 3199 ft | 191 kts | 358° |
| 2026-05-03 21:15 | 31.77451 | 5.41578 | 2952 ft | 184 kts | 3° |
| 2026-05-03 21:16 | 31.78712 | 5.41571 | 2728 ft | 178 kts | 5° |
| 2026-05-03 21:16 | 31.79930 | 5.41580 | 2486 ft | 172 kts | 6° |
| 2026-05-03 21:16 | 31.81103 | 5.41590 | 2268 ft | 163 kts | 5° |
| 2026-05-03 21:16 | 31.82200 | 5.41598 | 2085 ft | 150 kts | 5° |
| 2026-05-03 21:17 | 31.83215 | 5.41607 | 1880 ft | 142 kts | 6° |
| 2026-05-03 21:17 | 31.83861 | 5.41614 | 1744 ft | 139 kts | 6° |
| 2026-05-03 21:17 | 31.85162 | 5.41632 | 1520 ft | 142 kts | 5° |
| 2026-05-03 21:17 | 31.86143 | 5.41631 | 1321 ft | 138 kts | 4° |
| 2026-05-03 21:18 | 31.87081 | 5.41632 | 1138 ft | 129 kts | 4° |
| 2026-05-03 21:18 | 31.88006 | 5.41650 | 985 ft | 139 kts | 4° |
| 2026-05-03 21:18 | 31.88981 | 5.41644 | 802 ft | 139 kts | 4° |
| 2026-05-03 21:18 | 31.89946 | 5.41668 | 585 ft | 140 kts | 2° |
| 2026-05-03 21:19 | 31.90861 | 5.41677 | 480 ft | 122 kts | 360° |
| 2026-05-03 21:19 | 31.91593 | 5.41677 | 469 ft | 88 kts | 0° |
| 2026-05-03 21:19 | 31.92082 | 5.41680 | 462 ft | 55 kts | 1° |
| 2026-05-03 21:19 | 31.92454 | 5.41684 | 459 ft | 51 kts | 0° |
| 2026-05-03 21:20 | 31.92765 | 5.41688 | 455 ft | 33 kts | 359° |
| 2026-05-03 21:20 | 31.92912 | 5.41685 | 454 ft | 9 kts | 359° |
| 2026-05-03 21:20 | 31.92972 | 5.41665 | 452 ft | 9 kts | 328° |
| 2026-05-03 21:20 | 31.93015 | 5.41615 | 457 ft | 9 kts | 308° |
| 2026-05-03 21:21 | 31.93044 | 5.41553 | 463 ft | 10 kts | 298° |
| 2026-05-03 21:21 | 31.93090 | 5.41459 | 479 ft | 16 kts | 300° |
| 2026-05-03 21:21 | 31.93160 | 5.41313 | 483 ft | 27 kts | 300° |
| 2026-05-03 21:21 | 31.93257 | 5.41117 | 483 ft | 27 kts | 300° |
| 2026-05-03 21:22 | 31.93338 | 5.40962 | 474 ft | 15 kts | 317° |
| 2026-05-03 21:22 | 31.93417 | 5.40953 | 472 ft | 10 kts | 23° |
| 2026-05-03 21:22 | 31.93472 | 5.40990 | 474 ft | 5 kts | 340° |
| 2026-05-03 21:22 | 31.93475 | 5.40961 | 474 ft | 3 kts | 256° |
| 2026-05-03 21:23 | 31.93473 | 5.40959 | 474 ft | 0 kts | 246° |
| 2026-05-03 21:24 | 31.93494 | 5.40940 | 471 ft | 0 kts | 182° |